createdAt,value
2022-07-31T00:01:09.613Z,92.74
2022-07-31T00:03:38.565Z,92.69
2022-07-31T00:06:07.844Z,92.84
2022-07-31T00:08:37.806Z,93.59
2022-07-31T00:11:06.450Z,92.49
2022-07-31T00:13:57.271Z,92.28
2022-07-31T00:16:24.491Z,91.63
2022-07-31T00:18:53.358Z,90.40
2022-07-31T00:21:22.880Z,90.41
2022-07-31T00:23:52.128Z,90.49
2022-07-31T00:26:20.752Z,90.13
2022-07-31T00:28:49.539Z,91.42
2022-07-31T00:31:18.652Z,90.18
2022-07-31T00:33:47.358Z,90.79
2022-07-31T00:36:15.975Z,90.08
2022-07-31T00:38:44.652Z,90.70
2022-07-31T00:41:13.480Z,91.40
2022-07-31T00:43:42.054Z,89.57
2022-07-31T00:46:14.567Z,89.92
2022-07-31T00:48:43.311Z,88.72
2022-07-31T00:51:12.624Z,88.71
2022-07-31T00:53:42.055Z,89.34
2022-07-31T00:56:11.154Z,89.13
2022-07-31T00:58:39.820Z,88.63
2022-07-31T01:01:08.631Z,88.84
2022-07-31T01:03:37.379Z,88.67
2022-07-31T01:06:06.693Z,89.50
2022-07-31T01:08:36.090Z,90.09
2022-07-31T01:11:23.818Z,90.23
2022-07-31T01:14:11.711Z,89.91
2022-07-31T01:16:47.739Z,90.45
2022-07-31T01:19:42.169Z,90.11
2022-07-31T01:22:54.346Z,89.50
2022-07-31T01:25:53.429Z,89.74
2022-07-31T01:29:16.836Z,89.58
2022-07-31T01:32:13.835Z,88.81
2022-07-31T01:35:30.858Z,88.92
2022-07-31T01:38:37.132Z,87.29
2022-07-31T01:41:12.646Z,87.51
2022-07-31T01:43:46.898Z,87.57
2022-07-31T01:46:20.945Z,87.90
2022-07-31T01:48:50.752Z,87.38
2022-07-31T01:51:20.180Z,87.79
2022-07-31T01:53:52.187Z,87.17
2022-07-31T01:56:22.568Z,87.03
2022-07-31T01:58:52.423Z,88.33
2022-07-31T02:01:26.731Z,87.61
2022-07-31T02:04:00.575Z,87.75
2022-07-31T02:06:31.062Z,87.19
2022-07-31T02:09:01.876Z,87.00
2022-07-31T02:11:30.931Z,87.40
2022-07-31T02:14:02.540Z,87.72
2022-07-31T02:16:32.378Z,87.10
2022-07-31T02:19:01.819Z,87.51
2022-07-31T02:21:30.407Z,87.15
2022-07-31T02:23:59.043Z,86.77
2022-07-31T02:26:31.736Z,86.07
2022-07-31T02:29:02.234Z,85.91
2022-07-31T02:31:33.880Z,85.72
2022-07-31T02:34:01.760Z,85.75
2022-07-31T02:36:34.506Z,85.60
2022-07-31T02:39:04.512Z,85.38
2022-07-31T02:41:33.157Z,85.25
2022-07-31T02:44:01.670Z,84.85
2022-07-31T02:46:31.637Z,84.17
2022-07-31T02:49:00.999Z,84.12
2022-07-31T02:51:42.495Z,84.05
2022-07-31T02:54:13.206Z,83.76
2022-07-31T02:56:42.170Z,84.05
2022-07-31T02:59:12.487Z,83.20
2022-07-31T03:01:41.099Z,82.91
2022-07-31T03:04:08.986Z,82.58
2022-07-31T03:06:38.434Z,82.61
2022-07-31T03:09:08.171Z,82.02
2022-07-31T03:11:37.277Z,82.28
2022-07-31T03:14:08.345Z,81.63
2022-07-31T03:16:37.388Z,81.93
2022-07-31T03:19:08.544Z,81.38
2022-07-31T03:21:37.004Z,81.26
2022-07-31T03:24:06.505Z,81.50
2022-07-31T03:26:35.574Z,81.13
2022-07-31T03:29:05.216Z,81.50
2022-07-31T03:31:54.652Z,80.81
2022-07-31T03:34:24.140Z,80.44
2022-07-31T03:36:52.835Z,80.64
2022-07-31T03:39:20.538Z,81.03
2022-07-31T03:41:49.189Z,80.81
2022-07-31T03:44:20.399Z,80.17
2022-07-31T03:46:49.983Z,79.80
2022-07-31T03:49:20.050Z,80.87
2022-07-31T03:51:49.585Z,79.95
2022-07-31T03:54:19.283Z,79.45
2022-07-31T03:56:51.853Z,79.98
2022-07-31T03:59:22.340Z,79.83
2022-07-31T04:01:57.977Z,80.04
2022-07-31T04:04:28.609Z,79.69
2022-07-31T04:06:58.065Z,78.16
2022-07-31T04:09:27.581Z,79.13
2022-07-31T04:11:57.082Z,79.07
2022-07-31T04:14:26.676Z,78.88
2022-07-31T04:16:56.145Z,79.26
2022-07-31T04:19:25.646Z,79.36
2022-07-31T04:21:55.466Z,78.45
2022-07-31T04:24:23.241Z,79.02
2022-07-31T04:26:58.676Z,78.77
2022-07-31T04:29:29.708Z,79.36
2022-07-31T04:31:59.265Z,79.07
2022-07-31T04:34:27.189Z,78.60
2022-07-31T04:36:54.955Z,78.14
2022-07-31T04:39:22.663Z,78.30
2022-07-31T04:41:51.892Z,78.53
2022-07-31T04:44:21.413Z,78.05
2022-07-31T04:46:51.254Z,78.87
2022-07-31T04:49:19.155Z,77.85
2022-07-31T04:51:50.414Z,78.76
2022-07-31T04:54:20.004Z,80.06
2022-07-31T04:56:49.745Z,78.74
2022-07-31T04:59:21.987Z,78.72
2022-07-31T05:01:51.601Z,78.62
2022-07-31T05:04:21.219Z,78.19
2022-07-31T05:06:53.241Z,77.82
2022-07-31T05:09:25.459Z,78.37
2022-07-31T05:11:55.175Z,78.56
2022-07-31T05:14:23.733Z,79.62
2022-07-31T05:16:53.411Z,79.19
2022-07-31T05:19:21.963Z,79.39
2022-07-31T05:22:03.604Z,78.90
2022-07-31T05:24:34.427Z,79.63
2022-07-31T05:27:04.652Z,79.20
2022-07-31T05:29:34.456Z,79.30
2022-07-31T05:32:03.458Z,80.10
2022-07-31T05:34:32.099Z,79.66
2022-07-31T05:37:02.475Z,78.64
2022-07-31T05:39:31.361Z,78.62
2022-07-31T05:41:59.871Z,79.08
2022-07-31T05:44:29.350Z,79.50
2022-07-31T05:49:29.064Z,80.48
2022-07-31T05:51:58.635Z,80.21
2022-07-31T05:54:28.406Z,80.08
2022-07-31T05:56:58.130Z,81.64
2022-07-31T05:59:25.869Z,83.84
2022-07-31T06:01:59.828Z,86.25
2022-07-31T06:04:29.384Z,87.86
2022-07-31T06:06:58.921Z,89.00
2022-07-31T06:09:28.393Z,91.20
2022-07-31T06:11:57.922Z,92.45
2022-07-31T06:14:27.404Z,94.63
2022-07-31T06:16:56.918Z,94.27
2022-07-31T06:19:26.472Z,95.41
2022-07-31T06:21:56.053Z,96.45
2022-07-31T06:24:23.798Z,97.45
2022-07-31T06:27:01.796Z,97.97
2022-07-31T06:29:41.915Z,97.74
2022-07-31T06:32:10.844Z,99.80
2022-07-31T06:34:41.594Z,100.00
2022-07-31T06:37:09.713Z,99.29
2022-07-31T06:39:54.426Z,99.37
2022-07-31T06:42:26.548Z,99.79
2022-07-31T06:44:55.275Z,99.40
2022-07-31T06:47:26.376Z,98.78
2022-07-31T06:49:55.982Z,98.97
2022-07-31T06:52:23.823Z,99.24
2022-07-31T06:54:52.014Z,98.38
2022-07-31T06:57:20.520Z,97.73
2022-07-31T06:59:49.060Z,97.29
2022-07-31T07:02:17.760Z,97.34
2022-07-31T07:05:06.116Z,97.19
2022-07-31T07:07:36.813Z,98.31
2022-07-31T07:10:06.750Z,97.65
2022-07-31T07:12:35.284Z,98.28
2022-07-31T07:15:04.332Z,97.29
2022-07-31T07:17:32.063Z,97.76
2022-07-31T07:20:01.630Z,96.55
2022-07-31T07:22:30.101Z,97.18
2022-07-31T07:25:01.429Z,96.69
2022-07-31T07:27:31.043Z,96.37
2022-07-31T07:29:59.977Z,96.45
2022-07-31T07:32:28.479Z,97.02
2022-07-31T07:34:59.984Z,96.49
2022-07-31T07:37:30.327Z,94.84
2022-07-31T07:40:04.033Z,95.84
2022-07-31T07:42:32.775Z,95.96
2022-07-31T07:45:02.226Z,95.90
2022-07-31T07:47:53.701Z,96.48
2022-07-31T07:50:27.096Z,96.30
2022-07-31T07:52:58.000Z,93.60
2022-07-31T07:55:26.737Z,93.96
2022-07-31T07:57:55.397Z,93.48
2022-07-31T08:00:25.999Z,93.37
2022-07-31T08:03:46.803Z,93.67
2022-07-31T08:05:42.665Z,92.52
2022-07-31T08:08:12.379Z,90.63
2022-07-31T08:10:41.421Z,91.28
2022-07-31T08:13:12.605Z,92.61
2022-07-31T08:15:40.458Z,91.87
2022-07-31T08:18:08.331Z,91.58
2022-07-31T08:20:38.765Z,91.13
2022-07-31T08:23:06.853Z,90.16
2022-07-31T08:25:35.338Z,87.91
2022-07-31T08:28:05.595Z,87.17
2022-07-31T08:30:35.858Z,83.01
2022-07-31T08:33:05.323Z,80.33
2022-07-31T08:35:34.818Z,81.61
2022-07-31T08:38:04.750Z,76.93
2022-07-31T08:40:42.959Z,76.43
2022-07-31T08:44:00.618Z,77.79
2022-07-31T08:46:04.837Z,77.54
2022-07-31T08:48:40.486Z,75.76
2022-07-31T08:51:13.884Z,75.31
2022-07-31T08:53:44.935Z,74.97
2022-07-31T08:56:14.559Z,72.30
2022-07-31T08:58:44.858Z,75.18
2022-07-31T09:01:16.094Z,74.73
2022-07-31T09:03:46.028Z,72.49
2022-07-31T09:06:15.547Z,73.79
2022-07-31T09:08:45.045Z,72.95
2022-07-31T09:11:16.906Z,74.61
2022-07-31T09:14:02.633Z,73.00
2022-07-31T09:16:43.923Z,73.16
2022-07-31T09:19:53.147Z,74.26
2022-07-31T09:22:05.224Z,72.48
2022-07-31T09:24:39.832Z,71.46
2022-07-31T09:27:10.704Z,70.87
2022-07-31T09:29:44.393Z,72.18
2022-07-31T09:32:20.781Z,72.61
2022-07-31T09:34:50.329Z,72.35
2022-07-31T09:37:27.432Z,71.36
2022-07-31T09:39:57.453Z,70.96
2022-07-31T09:42:48.372Z,69.46
2022-07-31T09:45:25.832Z,70.17
2022-07-31T09:48:14.438Z,69.75
2022-07-31T09:51:04.598Z,68.12
2022-07-31T09:53:46.346Z,68.22
2022-07-31T09:56:16.232Z,68.54
2022-07-31T09:58:44.680Z,64.97
2022-07-31T10:01:14.469Z,66.08
2022-07-31T10:03:46.535Z,66.67
2022-07-31T10:06:16.635Z,67.57
2022-07-31T10:08:50.574Z,66.37
2022-07-31T10:11:23.564Z,66.50
2022-07-31T10:14:00.456Z,67.61
2022-07-31T10:16:36.697Z,67.77
2022-07-31T10:19:11.491Z,68.77
2022-07-31T10:21:49.893Z,69.87
2022-07-31T10:24:26.069Z,69.25
2022-07-31T10:27:07.848Z,68.91
2022-07-31T10:29:41.084Z,69.19
2022-07-31T10:32:10.271Z,68.83
2022-07-31T10:34:39.122Z,68.52
2022-07-31T10:37:25.979Z,68.51
2022-07-31T10:40:43.086Z,67.91
2022-07-31T10:43:57.561Z,67.51
2022-07-31T10:46:34.085Z,67.32
2022-07-31T10:49:08.545Z,67.32
2022-07-31T10:51:51.318Z,66.69
2022-07-31T10:54:19.661Z,66.38
2022-07-31T10:56:48.395Z,66.38
2022-07-31T10:59:16.834Z,65.75
2022-07-31T11:01:55.315Z,65.53
2022-07-31T11:04:32.877Z,64.62
2022-07-31T11:09:32.665Z,66.23
2022-07-31T11:12:21.763Z,66.55
2022-07-31T11:14:53.006Z,66.22
2022-07-31T11:18:20.838Z,66.15
2022-07-31T11:20:31.264Z,65.99
2022-07-31T11:23:05.035Z,100.00
2022-07-31T11:25:37.788Z,65.99
2022-07-31T11:28:24.730Z,65.89
2022-07-31T11:31:07.177Z,64.94
2022-07-31T11:33:42.809Z,49.68
2022-07-31T11:36:24.733Z,62.38
2022-07-31T11:38:56.894Z,63.50
2022-07-31T11:41:44.027Z,63.67
2022-07-31T11:44:13.389Z,64.04
2022-07-31T11:46:44.519Z,100.00
2022-07-31T11:49:44.125Z,100.00
2022-07-31T11:52:31.302Z,64.04
2022-07-31T11:55:09.819Z,100.00
2022-07-31T11:57:52.164Z,63.60
2022-07-31T12:00:29.073Z,63.77
2022-07-31T12:02:59.034Z,100.00
2022-07-31T12:05:38.180Z,100.00
2022-07-31T12:08:08.346Z,65.76
2022-07-31T12:10:39.960Z,65.08
2022-07-31T12:13:18.423Z,100.00
2022-07-31T12:16:11.230Z,100.00
2022-07-31T12:18:52.447Z,100.00
2022-07-31T12:21:38.535Z,100.00
2022-07-31T12:24:15.104Z,100.00
2022-07-31T12:26:59.298Z,100.00
2022-07-31T12:29:46.980Z,100.00
2022-07-31T12:32:26.621Z,100.00
2022-07-31T12:35:05.203Z,100.00
2022-07-31T12:37:51.266Z,65.08
2022-07-31T12:40:27.976Z,63.58
2022-07-31T12:42:59.636Z,64.11
2022-07-31T12:45:39.987Z,100.00
2022-07-31T12:48:09.460Z,64.11
2022-07-31T12:50:39.092Z,64.39
2022-07-31T12:53:07.505Z,65.28
2022-07-31T12:55:37.566Z,65.91
2022-07-31T12:58:07.105Z,67.09
2022-07-31T13:00:39.802Z,65.32
2022-07-31T13:03:10.424Z,66.61
2022-07-31T13:05:38.855Z,65.74
2022-07-31T13:08:08.842Z,66.14
2022-07-31T13:10:37.335Z,67.38
2022-07-31T13:13:08.046Z,67.64
2022-07-31T13:15:36.519Z,67.17
2022-07-31T13:18:06.361Z,68.72
2022-07-31T13:20:35.889Z,67.28
2022-07-31T13:25:33.983Z,67.43
2022-07-31T13:28:03.632Z,67.05
2022-07-31T13:30:33.118Z,68.43
2022-07-31T13:33:01.582Z,67.33
2022-07-31T13:35:32.780Z,67.31
2022-07-31T13:38:01.163Z,67.34
2022-07-31T13:40:47.829Z,67.91
2022-07-31T13:43:16.350Z,68.97
2022-07-31T13:45:46.358Z,69.14
2022-07-31T13:48:14.759Z,70.68
2022-07-31T13:50:43.534Z,70.71
2022-07-31T13:53:11.993Z,100.00
2022-07-31T13:55:41.502Z,100.00
2022-07-31T13:58:09.913Z,100.00
2022-07-31T14:00:38.342Z,100.00
2022-07-31T14:03:07.472Z,100.00
2022-07-31T14:05:40.300Z,100.00
2022-07-31T14:08:33.495Z,70.71
2022-07-31T14:10:59.065Z,100.00
2022-07-31T14:13:27.118Z,100.00
2022-07-31T14:15:56.494Z,100.00
2022-07-31T14:18:25.405Z,74.74
2022-07-31T14:20:53.233Z,75.28
2022-07-31T14:23:34.130Z,100.00
2022-07-31T14:26:05.235Z,100.00
2022-07-31T14:28:33.137Z,100.00
2022-07-31T14:31:00.935Z,100.00
2022-07-31T14:33:29.413Z,100.00
2022-07-31T14:35:59.042Z,100.00
2022-07-31T14:38:27.898Z,100.00
2022-07-31T14:40:56.490Z,100.00
2022-07-31T14:43:24.455Z,100.00
2022-07-31T14:45:52.889Z,100.00
2022-07-31T14:48:22.078Z,100.00
2022-07-31T14:50:51.728Z,74.78
2022-07-31T14:53:21.290Z,74.63
2022-07-31T14:55:48.975Z,74.16
2022-07-31T14:58:16.890Z,74.33
2022-07-31T15:00:44.836Z,73.82
2022-07-31T15:03:14.453Z,74.20
2022-07-31T15:06:39.767Z,73.61
2022-07-31T15:08:33.543Z,73.98
2022-07-31T15:11:01.223Z,73.65
2022-07-31T15:13:29.621Z,73.19
2022-07-31T15:15:57.464Z,72.56
2022-07-31T15:18:26.245Z,71.71
2022-07-31T15:20:54.479Z,73.07
2022-07-31T15:23:24.005Z,72.36
2022-07-31T15:25:53.583Z,72.77
2022-07-31T15:28:21.337Z,72.44
2022-07-31T15:30:49.068Z,71.72
2022-07-31T15:33:16.888Z,70.77
2022-07-31T15:35:44.610Z,71.00
2022-07-31T15:38:12.393Z,69.69
2022-07-31T15:40:40.216Z,67.98
2022-07-31T15:43:08.781Z,67.70
2022-07-31T15:45:37.179Z,67.44
2022-07-31T15:48:10.095Z,65.84
2022-07-31T15:50:38.977Z,65.11
2022-07-31T15:53:08.531Z,65.11
2022-07-31T15:55:37.000Z,63.16
2022-07-31T15:58:05.417Z,62.98
2022-07-31T16:00:33.919Z,62.78
2022-07-31T16:03:02.059Z,63.19
2022-07-31T16:05:35.978Z,62.71
2022-07-31T16:08:29.873Z,62.69
2022-07-31T16:10:58.209Z,62.61
2022-07-31T16:13:27.241Z,62.74
2022-07-31T16:15:55.694Z,62.62
2022-07-31T16:18:24.105Z,62.45
2022-07-31T16:20:53.139Z,61.41
2022-07-31T16:23:21.674Z,61.54
2022-07-31T16:25:50.098Z,61.37
2022-07-31T16:28:19.685Z,60.73
2022-07-31T16:30:48.179Z,60.04
2022-07-31T16:33:17.669Z,60.26
2022-07-31T16:35:46.301Z,60.13
2022-07-31T16:38:15.831Z,59.67
2022-07-31T16:40:44.459Z,60.26
2022-07-31T16:43:48.617Z,60.45
2022-07-31T16:46:01.424Z,60.70
2022-07-31T16:48:31.136Z,60.24
2022-07-31T16:51:01.410Z,59.96
2022-07-31T16:54:09.894Z,59.96
2022-07-31T16:56:19.793Z,60.44
2022-07-31T16:58:51.387Z,59.78
2022-07-31T17:01:57.259Z,59.71
2022-07-31T17:04:11.238Z,59.57
2022-07-31T17:06:39.972Z,58.31
2022-07-31T17:09:16.102Z,58.69
2022-07-31T17:11:56.542Z,58.69
2022-07-31T17:14:28.282Z,58.40
2022-07-31T17:16:57.185Z,57.35
2022-07-31T17:19:42.363Z,56.59
2022-07-31T17:22:19.954Z,57.12
2022-07-31T17:24:51.959Z,57.65
2022-07-31T17:27:22.729Z,58.08
2022-07-31T17:29:52.282Z,58.08
2022-07-31T17:32:21.056Z,58.81
2022-07-31T17:34:50.743Z,58.44
2022-07-31T17:37:20.473Z,57.86
2022-07-31T17:39:49.034Z,58.24
2022-07-31T17:42:18.206Z,58.32
2022-07-31T17:44:55.840Z,57.92
2022-07-31T17:47:26.174Z,57.38
2022-07-31T17:49:54.962Z,57.25
2022-07-31T17:52:25.375Z,57.14
2022-07-31T17:54:55.838Z,56.62
2022-07-31T17:57:29.443Z,57.41
2022-07-31T17:59:58.499Z,56.89
2022-07-31T18:02:27.771Z,57.25
2022-07-31T18:04:57.397Z,57.34
2022-07-31T18:07:26.388Z,56.52
2022-07-31T18:09:57.278Z,57.30
2022-07-31T18:12:26.845Z,57.14
2022-07-31T18:14:55.221Z,57.48
2022-07-31T18:17:23.670Z,57.27
2022-07-31T18:19:52.085Z,57.35
2022-07-31T18:22:20.573Z,57.40
2022-07-31T18:24:48.956Z,57.20
2022-07-31T18:27:17.657Z,56.89
2022-07-31T18:29:54.281Z,57.29
2022-07-31T18:32:25.071Z,56.89
2022-07-31T18:34:53.618Z,57.41
2022-07-31T18:37:23.156Z,56.62
2022-07-31T18:39:51.920Z,55.45
2022-07-31T18:42:21.640Z,55.10
2022-07-31T18:44:51.210Z,55.28
2022-07-31T18:47:19.735Z,54.45
2022-07-31T18:50:59.786Z,54.63
2022-07-31T18:52:36.648Z,54.55
2022-07-31T18:55:05.896Z,54.50
2022-07-31T18:57:35.475Z,54.60
2022-07-31T19:00:10.257Z,54.99
2022-07-31T19:02:38.808Z,55.22
2022-07-31T19:05:08.035Z,55.78
2022-07-31T19:07:41.708Z,55.90
2022-07-31T19:10:10.190Z,56.20
2022-07-31T19:12:57.531Z,56.60
2022-07-31T19:15:26.161Z,56.73
2022-07-31T19:17:57.721Z,57.04
2022-07-31T19:20:40.506Z,56.75
2022-07-31T19:23:16.393Z,57.47
2022-07-31T19:26:02.054Z,57.36
2022-07-31T19:28:36.254Z,57.82
2022-07-31T19:31:24.197Z,57.72
2022-07-31T19:33:52.670Z,57.57
2022-07-31T19:36:21.082Z,57.39
2022-07-31T19:38:48.828Z,57.39
2022-07-31T19:41:16.649Z,57.43
2022-07-31T19:43:45.080Z,57.51
2022-07-31T19:46:13.705Z,57.43
2022-07-31T19:48:46.836Z,57.30
2022-07-31T19:51:16.391Z,57.61
2022-07-31T19:53:46.235Z,57.29
2022-07-31T19:56:20.196Z,57.24
2022-07-31T19:58:50.656Z,56.88
2022-07-31T20:01:20.468Z,57.61
2022-07-31T20:03:51.216Z,57.31
2022-07-31T20:06:20.803Z,57.55
2022-07-31T20:08:50.754Z,57.42
2022-07-31T20:11:19.235Z,57.48
2022-07-31T20:13:46.980Z,58.05
2022-07-31T20:16:18.164Z,58.71
2022-07-31T20:18:48.383Z,58.97
2022-07-31T20:21:16.867Z,58.69
2022-07-31T20:23:44.655Z,58.67
2022-07-31T20:26:18.798Z,59.26
2022-07-31T20:28:47.309Z,58.79
2022-07-31T20:31:18.472Z,59.18
2022-07-31T20:33:57.831Z,58.87
2022-07-31T20:36:28.282Z,58.66
2022-07-31T20:38:58.887Z,58.82
2022-07-31T20:41:27.995Z,58.75
2022-07-31T20:43:56.562Z,59.25
2022-07-31T20:46:25.245Z,58.79
2022-07-31T20:48:56.479Z,58.88
2022-07-31T20:51:25.004Z,59.22
2022-07-31T20:53:54.966Z,58.76
2022-07-31T20:56:23.565Z,59.03
2022-07-31T20:58:52.287Z,58.64
2022-07-31T21:01:24.016Z,59.19
2022-07-31T21:03:53.028Z,59.72
2022-07-31T21:06:21.673Z,59.17
2022-07-31T21:08:50.285Z,59.51
2022-07-31T21:11:20.297Z,59.62
2022-07-31T21:13:48.133Z,59.34
2022-07-31T21:16:16.381Z,59.30
2022-07-31T21:18:44.063Z,60.15
2022-07-31T21:21:12.532Z,59.55
2022-07-31T21:23:40.886Z,59.26
2022-07-31T21:26:10.177Z,59.81
2022-07-31T21:28:39.646Z,59.75
2022-07-31T21:31:10.041Z,59.92
2022-07-31T21:33:39.115Z,60.28
2022-07-31T21:36:08.769Z,60.00
2022-07-31T21:38:40.275Z,59.94
2022-07-31T21:41:09.557Z,60.71
2022-07-31T21:43:58.784Z,60.39
2022-07-31T21:46:30.288Z,60.56
2022-07-31T21:48:59.744Z,60.82
2022-07-31T21:51:28.658Z,60.85
2022-07-31T21:53:58.293Z,60.23
2022-07-31T21:56:28.579Z,60.20
2022-07-31T21:58:57.059Z,60.23
2022-07-31T22:01:25.530Z,61.17
2022-07-31T22:03:54.108Z,61.19
2022-07-31T22:06:40.743Z,61.13
2022-07-31T22:09:09.776Z,61.48
2022-07-31T22:11:38.253Z,62.00
2022-07-31T22:14:06.765Z,62.01
2022-07-31T22:16:34.501Z,63.21
2022-07-31T22:19:03.557Z,63.71
2022-07-31T22:21:32.527Z,65.63
2022-07-31T22:24:00.802Z,64.81
2022-07-31T22:26:31.104Z,64.70
2022-07-31T22:29:00.596Z,64.81
2022-07-31T22:31:28.685Z,65.28
2022-07-31T22:33:58.336Z,65.55
2022-07-31T22:36:27.645Z,66.72
2022-07-31T22:38:58.242Z,65.61
2022-07-31T22:41:26.747Z,66.19
2022-07-31T22:44:14.160Z,66.07
2022-07-31T22:46:43.026Z,66.88
2022-07-31T22:49:13.334Z,66.97
2022-07-31T22:51:46.165Z,66.77
2022-07-31T22:54:14.399Z,65.86
2022-07-31T22:56:42.101Z,65.84
2022-07-31T22:59:09.808Z,66.23
2022-07-31T23:01:37.501Z,66.43
2022-07-31T23:04:07.042Z,66.29
2022-07-31T23:06:36.638Z,67.35
2022-07-31T23:09:04.451Z,66.50
2022-07-31T23:11:34.006Z,67.57
2022-07-31T23:14:03.512Z,67.25
2022-07-31T23:16:35.010Z,68.07
2022-07-31T23:19:03.252Z,68.05
2022-07-31T23:21:30.927Z,68.55
2022-07-31T23:23:58.633Z,68.89
2022-07-31T23:26:27.565Z,69.94
2022-07-31T23:28:56.699Z,69.58
2022-07-31T23:31:24.978Z,70.40
2022-07-31T23:33:55.056Z,71.26
2022-07-31T23:36:23.133Z,72.58
2022-07-31T23:38:52.672Z,72.39
2022-07-31T23:41:41.210Z,72.90
2022-07-31T23:44:10.476Z,74.60
2022-07-31T23:46:40.624Z,73.60
2022-07-31T23:49:10.289Z,74.18
2022-07-31T23:51:39.816Z,74.30
2022-07-31T23:54:09.502Z,74.74
2022-07-31T23:56:37.198Z,75.74
2022-07-31T23:59:06.759Z,75.86
